Dodson, Texas
Current Conditions -  °F | °C
As of 9:53 AM on Friday 31 Oct 2014 (Local Time) from KCDS Reporting Station
Clear Clear  
Wind Chill: 51°   Ceiling: Unl
Heat Index: 51°   Visibility: 10mi
Dew Point: 34°   Wind: 13mph
Humidity: 52%   Direction: 30°NNE
Pressure: 30.46"   Gusts: NA
Location:  34.77°N, 100.02°W
Report Text: KCDS 311453Z AUTO 03011KT 10SM CLR 11/01 A3046 RMK AO2 SLP308 T01060011 53021
Loading
Personal Weather Stations






























Interactive Weather Map
Tropical Storm Tracking
New forecast layout! Learn more

10-Day Weather Forecast

Advertisements
Track Severe Weather on mobile